LDZALJLJ

Guest
Details From LDZA - Zagreb
To LJLJ - LJUBLJANA
Flight Number -
Tags generated
Created
Modified
Stats Distance 73 nm / 136 km
Max Altitude 3,300 ft / 1,006 m
Waypoints 3
Social Downloads 6
Likes 0
Share VATSIM

Download

Looking for another format? Having issues loading an existing format? Contact us
Advertisement - Login to hide

Notes

Basic altitude profile: - Ascent Rate: 2500ft/min - Ascent Speed: 250kts - Cruise Altitude: 35000ft - Cruise Speed: 420kts - Descent Rate: 1500ft/min - Descent Speed: 250kts Options: - Use NATs: yes - Use PACOTS: yes - Use low airways: yes - Use high airways: yes

Route

LDZA DOL LJLJ

ID Type Via Altitude Latitude Longitude Leg Dist Tot Dist Heading (true) Name
O LDZA APT - 0 ft / 0 m 45.74189˚ 16.06720˚ - 0 nm - Zagreb
DOL VOR - 3,300 ft / 1,006 m 46.08414˚ 14.77857˚ 57 nm 57 nm 291° / 290° DOLSKO VOR-DME
O LJLJ APT - 0 ft / 0 m 46.22368˚ 14.45761˚ 15 nm 73 nm 302° / 302° LJUBLJANA

Altitude Profile

Advertisement - Login to hide

LDZA

Details ICAO LDZA (ZAG)
Name Zagreb
Region Croatia
Timezone Europe/Zagreb (UTC+2.0)
Stats Elevation 353 ft / 108 m (AMSL)
Location 45.741890° 16.067200°
Runways 1
Magnetic Variation 4.009° E

METAR

LDZA 271430Z 09003KT 040V140 9999 SCT045 27/17 Q1017 NOSIG

Decode

TAF

TAF LDZA 271125Z 2712/2812 07005KT 9999 SCT045 TX28/2714Z TN15/2803Z PROB30 TEMPO 2714/2719 TSRA FEW030CB BKN035

Decode

Departure Runways

ID Width Length Bearing (true) Bearing (mag) Surface Threshold Offset Overrun Length
05 148 ft / 45 m 10,659 ft / 3,249 m 46.69° 42.68° Asphalt 0 ft / 0 m 195 ft / 59 m
23 148 ft / 45 m 10,659 ft / 3,249 m 226.71° 222.70° Asphalt 0 ft / 0 m 195 ft / 59 m

LJLJ

Details ICAO LJLJ (LJU)
Name LJUBLJANA
Region Slovenia
Timezone Europe/Ljubljana (UTC+2.0)
Stats Elevation 1,273 ft / 388 m (AMSL)
Location 46.223685° 14.457608°
Runways 1
Magnetic Variation 3.713° E

METAR

LJLJ 271430Z 06005KT 010V100 9999 FEW033CB SCT040 27/16 Q1018 NOSIG

Decode

TAF

TAF LJLJ 271400Z 2715/2815 12005KT 9999 SCT040 TEMPO 2715/2722 SHRA SCT030TCU BKN050 PROB40 TEMPO 2715/2721 VRB15KT 6000 TSRA SCT030CB BKN040 BECMG 2719/2721 30003KT BECMG 2808/2810 13005KT TEMPO 2810/2815 SHRA SCT030TCU BKN050 PROB40 TEMPO 2812/2815 VRB15KT 6000 TSRA BKN035CB

Decode

Destination Runways

ID Width Length Bearing (true) Bearing (mag) Surface Threshold Offset Overrun Length
13 148 ft / 45 m 10,811 ft / 3,295 m 126.47° 122.76° Asphalt 0 ft / 0 m 0 ft / 0 m
31 148 ft / 45 m 10,811 ft / 3,295 m 306.49° 302.78° Asphalt 0 ft / 0 m 0 ft / 0 m

Approach Navaids

Runway Type Ident Frequency Range Bearing (true) Bearing (mag) Slope Elevation
31 Localiser LJB 110.50 MHz 18 nm / 33 km 306.46° 302.75° - 1,282 ft / 391 m (AMSL)
31 Glidescope LJB 110.50 MHz 10 nm / 19 km 306.48° 302.77° 3.00° 1,198 ft / 365 m (AMSL)
31 DME LJB 110.50 MHz 18 nm / 33 km - - - 1,198 ft / 365 m (AMSL)

Popular Alternatives